Time;durP1;ratioP1;P1;durP2;ratioP2;P2;SDS_P1;SDS_P2;PMS_P1;PMS_P2;Temp;Humidity;BMP_temperature;BMP_pressure;BME280_temperature;BME280_humidity;BME280_pressure;Samples;Min_cycle;Max_cycle;Signal;HPM_P1;HPM_P2
2023/09/17 00:01:11;;;;;;;18.55;13.18;;;;;;;15.23;93.65;101410.33;1635369;88;21062;-73
2023/09/17 00:03:41;;;;;;;21.23;14.03;;;;;;;15.23;93.58;101410.33;1617414;88;21059;-71
2023/09/17 00:06:09;;;;;;;20.85;13.85;;;;;;;15.23;93.59;101414.47;1635042;87;21102;-72
2023/09/17 00:08:38;;;;;;;20.70;13.83;;;;;;;15.24;93.48;101407.89;1635565;88;21019;-71
2023/09/17 00:11:08;;;;;;;19.92;12.90;;;;;;;15.23;93.39;101410.33;1635309;88;21038;-73
2023/09/17 00:13:38;;;;;;;20.05;13.62;;;;;;;15.22;93.26;101407.23;1635302;88;21490;-71
2023/09/17 00:16:06;;;;;;;22.02;14.25;;;;;;;15.20;93.17;101409.35;1635395;87;21118;-72
2023/09/17 00:18:35;;;;;;;21.73;14.23;;;;;;;15.17;93.04;101405.62;1635361;88;21463;-72
2023/09/17 00:21:06;;;;;;;19.70;13.60;;;;;;;15.14;93.10;101407.41;1635391;88;21054;-72
2023/09/17 00:23:34;;;;;;;23.95;15.53;;;;;;;15.13;93.30;101409.84;1635662;87;21063;-72
2023/09/17 00:26:03;;;;;;;25.05;15.78;;;;;;;15.10;93.33;101411.62;1635551;88;21133;-72
2023/09/17 00:28:33;;;;;;;22.32;14.93;;;;;;;15.06;93.35;101408.42;1635370;88;21494;-73
2023/09/17 00:31:02;;;;;;;21.35;15.95;;;;;;;15.02;93.51;101415.40;1635415;88;21059;-72
2023/09/17 00:33:31;;;;;;;22.62;15.18;;;;;;;15.00;93.75;101413.90;1635378;88;21532;-71
2023/09/17 00:36:01;;;;;;;22.75;15.25;;;;;;;14.98;93.77;101407.73;1635575;87;21086;-72
2023/09/17 00:38:30;;;;;;;26.57;15.10;;;;;;;14.98;93.79;101409.11;1635395;88;21106;-72
2023/09/17 00:41:00;;;;;;;23.02;15.68;;;;;;;14.98;93.88;101410.48;1635418;88;21063;-71
2023/09/17 00:43:30;;;;;;;22.85;15.93;;;;;;;15.01;94.03;101409.55;1635336;87;21121;-72
2023/09/17 00:45:58;;;;;;;24.00;14.70;;;;;;;15.03;94.07;101412.11;1635319;88;21050;-70
2023/09/17 00:48:27;;;;;;;25.12;15.10;;;;;;;15.05;93.97;101415.52;1635428;88;21066;-71
2023/09/17 00:50:56;;;;;;;24.23;15.72;;;;;;;15.05;93.71;101415.00;1635399;88;21548;-74
2023/09/17 00:53:28;;;;;;;21.45;14.90;;;;;;;15.04;93.54;101411.06;1635299;88;21511;-73
2023/09/17 00:55:58;;;;;;;19.75;14.35;;;;;;;15.01;93.53;101410.08;1635609;88;21046;-72
2023/09/17 00:58:33;;;;;;;23.80;15.50;;;;;;;15.00;93.50;101408.38;1635425;88;21528;-71
2023/09/17 01:00:58;;;;;;;20.82;15.20;;;;;;;14.99;93.53;101408.91;1635309;86;21126;-73
2023/09/17 01:03:27;;;;;;;22.93;14.83;;;;;;;15.02;93.57;101411.78;1635359;88;21059;-73
2023/09/17 01:05:57;;;;;;;26.30;14.70;;;;;;;15.03;93.56;101406.59;1635371;88;21066;-71
2023/09/17 01:08:27;;;;;;;23.52;15.05;;;;;;;15.07;93.59;101414.80;1635630;88;21491;-72
2023/09/17 01:10:56;;;;;;;24.35;14.43;;;;;;;15.06;93.59;101412.56;1635600;88;21058;-72
2023/09/17 01:13:25;;;;;;;21.93;14.90;;;;;;;15.01;93.54;101409.55;1635374;88;21039;-72
2023/09/17 01:15:54;;;;;;;24.15;15.10;;;;;;;15.00;93.64;101405.62;1635542;88;21063;-72
2023/09/17 01:18:23;;;;;;;25.57;15.45;;;;;;;15.01;93.65;101406.80;1635366;88;21075;-72
2023/09/17 01:21:04;;;;;;;20.35;14.25;;;;;;;15.00;93.62;101407.84;1635592;88;21030;-71
2023/09/17 01:23:47;;;;;;;20.32;14.60;;;;;;;14.99;93.55;101413.58;1635334;88;21023;-72
2023/09/17 01:26:27;;;;;;;21.82;14.68;;;;;;;14.96;93.42;101407.08;1635385;88;21070;-72
2023/09/17 01:28:56;;;;;;;20.27;14.83;;;;;;;14.94;93.43;101405.02;1635379;88;21071;-72
2023/09/17 01:31:24;;;;;;;19.37;14.25;;;;;;;14.90;93.53;101402.66;1635275;88;21091;-72
2023/09/17 01:33:54;;;;;;;21.25;13.90;;;;;;;14.88;93.66;101398.39;1633097;88;21071;-72
2023/09/17 01:36:35;;;;;;;20.02;14.38;;;;;;;14.86;93.87;101404.64;1623842;88;21083;-73
2023/09/17 01:39:10;;;;;;;20.10;13.72;;;;;;;14.82;93.82;101395.06;1685092;85;21041;-72
2023/09/17 01:41:40;;;;;;;20.60;14.53;;;;;;;14.76;93.92;101389.82;1685255;85;21056;-74
2023/09/17 01:44:09;;;;;;;21.48;14.73;;;;;;;14.73;94.22;101399.87;1685284;85;20980;-72
2023/09/17 01:46:39;;;;;;;20.00;13.93;;;;;;;14.72;94.57;101390.42;1685054;85;21634;-73
2023/09/17 01:49:10;;;;;;;19.27;13.83;;;;;;;14.74;94.87;101390.55;1685081;85;21506;-73
2023/09/17 01:51:41;;;;;;;22.58;14.68;;;;;;;14.75;95.16;101386.73;1685235;85;21064;-73
2023/09/17 01:54:10;;;;;;;19.95;14.40;;;;;;;14.78;95.37;101386.86;1685130;85;21063;-73
2023/09/17 01:56:39;;;;;;;22.42;14.45;;;;;;;14.79;95.48;101392.18;1685201;85;21063;-72
2023/09/17 01:59:08;;;;;;;20.80;13.93;;;;;;;14.83;95.36;101390.72;1685237;85;21005;-73
2023/09/17 02:01:37;;;;;;;18.87;13.58;;;;;;;14.85;95.28;101394.13;1690597;85;21096;-73
2023/09/17 02:04:06;;;;;;;18.25;13.25;;;;;;;14.87;95.14;101393.92;1685042;84;21024;-73
2023/09/17 02:06:36;;;;;;;20.10;13.65;;;;;;;14.89;95.06;101392.67;1685094;84;21523;-71
2023/09/17 02:09:05;;;;;;;19.17;13.88;;;;;;;14.88;94.91;101397.02;1685312;85;21020;-71
2023/09/17 02:11:37;;;;;;;19.95;14.03;;;;;;;14.85;94.80;101390.52;1685102;84;21069;-72
2023/09/17 02:14:08;;;;;;;19.77;14.00;;;;;;;14.83;94.69;101385.20;1685154;85;21076;-73
2023/09/17 02:16:38;;;;;;;21.95;13.83;;;;;;;14.80;94.55;101382.84;1685259;85;21036;-72
2023/09/17 02:19:06;;;;;;;22.80;14.30;;;;;;;14.78;94.74;101386.33;1667627;85;21067;-73
2023/09/17 02:21:36;;;;;;;21.87;14.43;;;;;;;14.76;94.82;101381.55;1685100;85;21039;-73
2023/09/17 02:24:05;;;;;;;20.75;13.58;;;;;;;14.76;94.87;101384.83;1685046;85;21530;-73
2023/09/17 02:26:34;;;;;;;20.97;13.13;;;;;;;14.77;94.82;101379.64;1685260;85;21032;-73
2023/09/17 02:29:04;;;;;;;18.92;13.50;;;;;;;14.77;94.82;101381.88;1685068;85;21072;-72
2023/09/17 02:31:32;;;;;;;21.35;13.70;;;;;;;14.78;94.84;101379.44;1685227;85;21049;-72
2023/09/17 02:34:01;;;;;;;21.90;14.25;;;;;;;14.78;94.79;101373.06;1682713;85;21472;-72
2023/09/17 02:36:30;;;;;;;20.75;14.03;;;;;;;14.78;94.84;101372.53;1666558;85;21568;-73
2023/09/17 02:38:59;;;;;;;22.05;13.55;;;;;;;14.78;94.66;101375.83;1666549;86;21081;-73
2023/09/17 02:41:27;;;;;;;19.92;14.07;;;;;;;14.77;94.65;101374.97;1666502;86;21106;-72
2023/09/17 02:43:57;;;;;;;21.60;14.38;;;;;;;14.77;94.64;101374.97;1666540;86;21066;-73
2023/09/17 02:46:26;;;;;;;18.37;13.80;;;;;;;14.77;94.62;101373.59;1666613;86;21118;-73
2023/09/17 02:48:55;;;;;;;18.73;13.22;;;;;;;14.78;94.51;101371.69;1666735;86;21062;-73
2023/09/17 02:51:23;;;;;;;19.52;13.03;;;;;;;14.78;94.43;101377.20;1666497;86;21106;-73
2023/09/17 02:53:52;;;;;;;18.32;13.35;;;;;;;14.77;94.39;101374.97;1666717;86;21117;-74
2023/09/17 02:56:21;;;;;;;19.75;13.38;;;;;;;14.75;94.41;101379.84;1666478;85;21062;-73
2023/09/17 02:58:50;;;;;;;20.77;14.07;;;;;;;14.73;94.37;101379.71;1666619;86;21038;-73
2023/09/17 03:01:19;;;;;;;21.68;13.55;;;;;;;14.70;94.42;101376.83;1666460;86;21526;-73
2023/09/17 03:03:48;;;;;;;21.60;14.13;;;;;;;14.68;94.47;101377.56;1659350;86;21134;-73
2023/09/17 03:06:17;;;;;;;20.57;13.80;;;;;;;14.67;94.53;101375.86;1659321;86;21518;-74
2023/09/17 03:08:46;;;;;;;22.27;14.23;;;;;;;14.66;94.46;101367.78;1659292;85;21066;-74
2023/09/17 03:11:17;;;;;;;22.15;13.93;;;;;;;14.62;94.51;101369.23;1659249;86;21502;-73
2023/09/17 03:13:46;;;;;;;20.00;13.62;;;;;;;14.61;94.59;101367.00;1659495;86;21474;-73
2023/09/17 03:16:16;;;;;;;20.20;13.70;;;;;;;14.57;94.52;101373.45;1659475;86;21110;-74
2023/09/17 03:18:46;;;;;;;19.80;13.93;;;;;;;14.55;94.53;101373.32;1659541;85;21201;-73
2023/09/17 03:21:15;;;;;;;21.00;13.85;;;;;;;14.52;94.66;101370.44;1659384;86;21518;-73
2023/09/17 03:23:43;;;;;;;19.67;14.05;;;;;;;14.49;94.79;101363.09;1659630;85;21078;-74
2023/09/17 03:26:11;;;;;;;20.92;14.23;;;;;;;14.47;94.93;101365.19;1659285;86;21035;-73
2023/09/17 03:28:40;;;;;;;19.92;13.83;;;;;;;14.46;95.00;101369.00;1659470;86;21602;-74
2023/09/17 03:31:08;;;;;;;18.35;13.03;;;;;;;14.47;95.10;101370.19;1659509;86;21059;-73
2023/09/17 03:33:37;;;;;;;20.32;13.93;;;;;;;14.47;95.16;101366.57;1659464;86;21062;-74
2023/09/17 03:36:06;;;;;;;20.10;13.90;;;;;;;14.47;95.13;101370.70;1654990;86;21055;-73
2023/09/17 03:38:35;;;;;;;20.10;13.85;;;;;;;14.47;95.06;101370.70;1652187;86;21082;-72
2023/09/17 03:41:04;;;;;;;19.17;13.38;;;;;;;14.46;95.06;101372.61;1652157;87;21054;-74
2023/09/17 03:43:34;;;;;;;19.82;13.48;;;;;;;14.45;95.08;101372.81;1652000;87;21071;-73
2023/09/17 03:46:06;;;;;;;18.92;13.62;;;;;;;14.44;95.08;101378.00;1655004;87;21059;-74
2023/09/17 03:48:36;;;;;;;17.62;13.05;;;;;;;14.43;95.08;101373.53;1652087;87;21054;-73
2023/09/17 03:51:06;;;;;;;20.12;13.20;;;;;;;14.41;95.13;101381.12;1651979;86;21059;-74
2023/09/17 03:53:34;;;;;;;19.45;13.13;;;;;;;14.41;95.27;101378.37;1651961;86;21059;-72
2023/09/17 03:56:04;;;;;;;19.98;12.88;;;;;;;14.41;95.23;101370.09;1652199;87;21073;-71
2023/09/17 03:58:34;;;;;;;17.65;12.80;;;;;;;14.40;95.24;101373.38;1633346;87;21075;-72
2023/09/17 04:01:06;;;;;;;17.60;13.43;;;;;;;14.39;95.22;101370.82;1633675;86;21059;-73
2023/09/17 04:03:36;;;;;;;20.35;13.45;;;;;;;14.39;95.35;101370.82;1652011;87;21082;-73
2023/09/17 04:06:05;;;;;;;17.67;13.00;;;;;;;14.40;95.52;101375.28;1652209;86;21130;-73
2023/09/17 04:08:35;;;;;;;17.90;13.03;;;;;;;14.41;95.54;101369.57;1652268;87;21178;-73
2023/09/17 04:11:08;;;;;;;20.85;13.13;;;;;;;14.43;95.55;101370.78;1652056;86;21087;-72
2023/09/17 04:13:35;;;;;;;19.15;13.50;;;;;;;14.42;95.55;101367.17;1652278;86;21203;-73
2023/09/17 04:16:07;;;;;;;19.12;13.25;;;;;;;14.42;95.54;101373.18;1652185;87;21134;-72
2023/09/17 04:18:37;;;;;;;20.23;12.70;;;;;;;14.42;95.62;101375.94;1652155;86;21102;-72
2023/09/17 04:21:07;;;;;;;22.73;13.88;;;;;;;14.43;95.70;101378.53;1652203;87;21055;-71
2023/09/17 04:23:36;;;;;;;20.02;13.13;;;;;;;14.44;95.80;101379.38;1651993;86;21471;-72
2023/09/17 04:26:05;;;;;;;20.10;13.28;;;;;;;14.47;95.82;101382.59;1652006;87;21062;-73
2023/09/17 04:28:34;;;;;;;20.00;13.35;;;;;;;14.46;95.73;101386.93;1652019;87;21047;-75
2023/09/17 04:31:05;;;;;;;20.50;13.88;;;;;;;14.44;95.87;101384.37;1652123;86;21071;-72
2023/09/17 04:33:36;;;;;;;20.08;13.68;;;;;;;14.46;96.04;101385.02;1652164;87;21471;-72
2023/09/17 04:36:06;;;;;;;24.75;14.73;;;;;;;14.45;96.14;101392.12;1657265;86;21138;-72
2023/09/17 04:38:35;;;;;;;19.87;14.28;;;;;;;14.48;96.30;101391.20;1664778;85;21139;-74
2023/09/17 04:41:05;;;;;;;24.85;17.10;;;;;;;14.50;96.39;101387.70;1659851;86;21499;-72
2023/09/17 04:43:36;;;;;;;23.47;15.38;;;;;;;14.54;96.49;101389.55;1659645;85;21497;-72
2023/09/17 04:46:05;;;;;;;22.10;15.15;;;;;;;14.55;96.66;101389.87;1659818;86;21019;-73
2023/09/17 04:48:38;;;;;;;20.82;14.95;;;;;;;14.57;96.82;101383.09;1659668;85;21038;-72
2023/09/17 04:51:07;;;;;;;18.32;13.32;;;;;;;14.61;96.85;101389.07;1660023;85;21145;-72
2023/09/17 04:53:36;;;;;;;19.45;13.20;;;;;;;14.65;97.02;101388.99;1665205;85;21062;-71
2023/09/17 04:56:05;;;;;;;19.25;13.58;;;;;;;14.72;97.15;101389.05;1659627;86;21070;-73
2023/09/17 04:58:35;;;;;;;21.70;14.68;;;;;;;14.75;97.26;101387.27;1659866;85;21085;-74
2023/09/17 05:01:06;;;;;;;20.15;14.75;;;;;;;14.82;97.31;101390.92;1659591;85;21439;-73
2023/09/17 05:03:37;;;;;;;21.73;14.28;;;;;;;14.87;97.31;101385.13;1659814;86;21034;-72
2023/09/17 05:06:05;;;;;;;18.32;13.95;;;;;;;14.91;97.12;101394.70;1659627;85;21651;-73
2023/09/17 05:08:34;;;;;;;18.95;14.05;;;;;;;14.95;97.14;101395.67;1659770;86;21093;-73
2023/09/17 05:11:05;;;;;;;21.05;14.33;;;;;;;14.99;97.09;101398.39;1659626;86;21035;-72
2023/09/17 05:13:33;;;;;;;17.87;13.53;;;;;;;15.01;97.01;101396.28;1659739;86;21075;-73
2023/09/17 05:16:03;;;;;;;19.95;13.78;;;;;;;15.05;96.94;101400.34;1659824;85;21177;-71
2023/09/17 05:18:32;;;;;;;18.60;13.62;;;;;;;15.06;96.95;101398.76;1659639;86;21090;-72
2023/09/17 05:21:01;;;;;;;17.92;13.45;;;;;;;15.09;96.87;101397.50;1659737;86;21090;-73
2023/09/17 05:23:30;;;;;;;19.25;13.53;;;;;;;15.13;96.76;101396.03;1659596;86;21086;-72
2023/09/17 05:26:01;;;;;;;21.85;14.47;;;;;;;15.14;96.76;101391.70;1659610;86;21106;-73
2023/09/17 05:28:30;;;;;;;17.90;14.43;;;;;;;15.16;96.72;101392.87;1659640;86;21019;-72
2023/09/17 05:30:59;;;;;;;20.70;14.95;;;;;;;15.19;96.78;101392.47;1659940;86;21042;-73
2023/09/17 05:33:29;;;;;;;22.52;14.28;;;;;;;15.22;96.73;101393.44;1659676;86;21665;-72
2023/09/17 05:35:59;;;;;;;20.32;14.30;;;;;;;15.25;96.63;101395.78;1645121;86;21085;-73
2023/09/17 05:38:29;;;;;;;20.77;14.23;;;;;;;15.29;96.53;101393.47;1631904;88;21572;-72
2023/09/17 05:40:57;;;;;;;19.15;13.93;;;;;;;15.33;96.51;101398.91;1632024;88;21105;-72
2023/09/17 05:43:26;;;;;;;19.62;13.90;;;;;;;15.34;96.30;101398.70;1632004;88;21078;-72
2023/09/17 05:45:57;;;;;;;17.60;14.00;;;;;;;15.37;96.24;101396.91;1632066;88;21070;-73
2023/09/17 05:48:29;;;;;;;20.35;14.30;;;;;;;15.40;96.09;101395.65;1632103;88;21186;-73
2023/09/17 05:50:59;;;;;;;19.92;13.70;;;;;;;15.43;95.96;101395.23;1631985;88;21166;-73
2023/09/17 05:53:31;;;;;;;18.73;13.72;;;;;;;15.44;95.89;101392.27;1632044;87;21074;-73
2023/09/17 05:56:04;;;;;;;18.98;14.13;;;;;;;15.47;95.83;101393.24;1632023;88;21062;-72
2023/09/17 05:58:34;;;;;;;19.50;14.35;;;;;;;15.50;95.79;101392.83;1632232;88;21058;-72
2023/09/17 06:01:04;;;;;;;19.25;14.38;;;;;;;15.54;95.70;101384.45;1632102;88;21486;-72
2023/09/17 06:03:34;;;;;;;18.42;13.75;;;;;;;15.59;95.44;101389.92;1632218;88;21090;-73
2023/09/17 06:06:04;;;;;;;18.75;14.30;;;;;;;15.61;95.19;101393.36;1632088;87;21451;-71
2023/09/17 06:08:33;;;;;;;18.37;14.15;;;;;;;15.64;95.05;101398.48;1631896;88;21058;-73
2023/09/17 06:11:03;;;;;;;19.05;14.23;;;;;;;15.66;94.95;101394.45;1632048;87;21046;-72
2023/09/17 06:13:32;;;;;;;21.75;13.88;;;;;;;15.70;94.88;101401.79;1613508;88;21090;-73
2023/09/17 06:16:01;;;;;;;19.48;13.35;;;;;;;15.74;94.73;101396.17;1631877;88;21106;-74
2023/09/17 06:18:32;;;;;;;19.15;13.65;;;;;;;15.81;94.50;101395.66;1631847;87;21540;-73
2023/09/17 06:21:03;;;;;;;20.68;13.13;;;;;;;15.86;94.18;101404.19;1631916;86;21042;-72
2023/09/17 06:23:32;;;;;;;17.00;12.85;;;;;;;15.90;93.80;101404.09;1631826;87;21470;-73
2023/09/17 06:26:01;;;;;;;16.55;12.43;;;;;;;15.92;93.23;101406.11;1631831;88;21090;-72
2023/09/17 06:28:31;;;;;;;17.57;13.10;;;;;;;15.95;92.67;101405.70;1631927;88;21103;-73
2023/09/17 06:31:03;;;;;;;15.93;12.60;;;;;;;15.97;92.14;101404.95;1631879;87;21095;-74
2023/09/17 06:33:34;;;;;;;17.45;12.53;;;;;;;16.01;91.73;101410.39;1631989;88;21075;-72
2023/09/17 06:36:04;;;;;;;16.48;12.60;;;;;;;16.05;91.29;101406.67;1640642;86;21121;-73
2023/09/17 06:38:35;;;;;;;18.42;12.90;;;;;;;16.08;90.61;101412.64;1652288;86;21039;-72
2023/09/17 06:41:04;;;;;;;20.85;13.50;;;;;;;16.10;90.20;101404.98;1652106;86;21098;-73
2023/09/17 06:43:32;;;;;;;19.73;12.35;;;;;;;16.15;89.86;101409.89;1652202;86;21047;-72
2023/09/17 06:46:01;;;;;;;16.48;12.03;;;;;;;16.17;89.38;101411.91;1652243;87;21083;-74
2023/09/17 06:48:30;;;;;;;16.60;12.20;;;;;;;16.20;88.85;101418.94;1652065;86;21494;-74
2023/09/17 06:51:01;;;;;;;16.73;12.88;;;;;;;16.23;88.21;101417.13;1652134;86;21524;-73
2023/09/17 06:53:30;;;;;;;17.02;12.63;;;;;;;16.26;87.64;101417.60;1651999;86;21074;-72
2023/09/17 06:55:58;;;;;;;16.65;13.18;;;;;;;16.29;87.22;101414.41;1651980;86;21146;-72
2023/09/17 06:58:27;;;;;;;23.05;14.03;;;;;;;16.32;86.77;101417.28;1652176;87;21035;-72
2023/09/17 07:00:57;;;;;;;23.25;13.35;;;;;;;16.34;86.29;101417.92;1652115;86;21079;-72
2023/09/17 07:03:26;;;;;;;17.02;13.22;;;;;;;16.38;85.51;101420.59;1652126;86;21528;-73
2023/09/17 07:05:54;;;;;;;20.02;13.85;;;;;;;16.41;85.03;101420.17;1652136;87;21059;-73
2023/09/17 07:08:24;;;;;;;21.05;13.70;;;;;;;16.47;84.92;101424.86;1652115;86;21043;-72
2023/09/17 07:10:54;;;;;;;21.10;13.03;;;;;;;16.53;84.94;101419.86;1651989;86;21560;-74
2023/09/17 07:13:22;;;;;;;18.85;13.00;;;;;;;16.60;84.62;101422.63;1652020;86;21106;-72
2023/09/17 07:15:52;;;;;;;17.27;12.60;;;;;;;16.63;84.15;101420.82;1652201;86;21071;-72
2023/09/17 07:18:22;;;;;;;23.25;13.43;;;;;;;16.69;83.71;101425.53;1652048;86;21047;-71
2023/09/17 07:20:51;;;;;;;17.52;13.45;;;;;;;16.73;83.41;101418.52;1652099;86;21087;-72
2023/09/17 07:23:21;;;;;;;17.75;13.03;;;;;;;16.77;83.28;101416.48;1652151;87;21078;-73
2023/09/17 07:25:50;;;;;;;16.93;13.13;;;;;;;16.83;82.85;101415.31;1652148;87;21047;-72
2023/09/17 07:28:20;;;;;;;18.73;13.30;;;;;;;16.88;82.59;101412.75;1652202;86;21011;-72
2023/09/17 07:30:56;;;;;;;16.35;12.28;;;;;;;16.92;82.20;101416.29;1652129;86;21075;-72
2023/09/17 07:33:26;;;;;;;15.10;11.03;;;;;;;16.95;81.67;101408.09;1651865;85;21070;-72
2023/09/17 07:35:55;;;;;;;19.73;12.47;;;;;;;17.00;81.38;101411.91;1651839;86;21095;-71
2023/09/17 07:38:25;;;;;;;14.47;11.85;;;;;;;17.04;81.32;101400.72;1652145;87;21136;-73
2023/09/17 07:40:55;;;;;;;16.52;11.65;;;;;;;17.11;81.24;101397.94;1651935;86;21114;-71
2023/09/17 07:43:24;;;;;;;14.83;11.35;;;;;;;17.18;80.93;101402.93;1652030;86;21063;-72
2023/09/17 07:45:54;;;;;;;15.53;11.18;;;;;;;17.26;80.70;101399.07;1654810;85;21095;-73
2023/09/17 07:48:27;;;;;;;15.83;11.38;;;;;;;17.33;80.41;101396.60;1651909;86;21511;-73
2023/09/17 07:51:01;;;;;;;18.12;12.40;;;;;;;17.55;80.06;101393.53;1651941;87;21034;-73
2023/09/17 07:53:32;;;;;;;14.00;11.55;;;;;;;17.92;79.09;101398.32;1652143;87;21054;-73
2023/09/17 07:56:03;;;;;;;15.45;11.25;;;;;;;18.39;78.41;101393.34;1652092;86;21118;-72
2023/09/17 07:58:35;;;;;;;14.38;10.45;;;;;;;18.91;75.94;101390.71;1652163;86;21066;-73
2023/09/17 08:01:06;;;;;;;14.63;9.90;;;;;;;19.43;74.28;101386.19;1652121;86;21131;-74
2023/09/17 08:03:35;;;;;;;11.83;9.13;;;;;;;19.96;71.64;101387.80;1652160;86;21090;-73
2023/09/17 08:06:05;;;;;;;13.48;9.53;;;;;;;20.49;67.91;101382.33;1652085;87;21079;-72
2023/09/17 08:08:35;;;;;;;11.50;8.28;;;;;;;21.01;65.07;101376.94;1652102;87;21047;-72
2023/09/17 08:11:04;;;;;;;14.63;8.78;;;;;;;21.51;62.22;101377.29;1652011;87;21043;-72
2023/09/17 08:13:34;;;;;;;10.65;8.23;;;;;;;21.97;60.84;101372.63;1651929;86;21075;-75
2023/09/17 08:16:02;;;;;;;12.73;8.63;;;;;;;22.48;59.55;101375.58;1647975;85;21082;-82
2023/09/17 08:18:31;;;;;;;11.88;8.30;;;;;;;22.83;56.86;101369.23;1639756;87;21082;-80
2023/09/17 08:21:00;;;;;;;9.83;7.80;;;;;;;23.06;56.28;101375.17;1639558;87;21471;-81
2023/09/17 08:23:30;;;;;;;7.37;6.55;;;;;;;23.28;54.68;101371.02;1639676;87;21100;-81
2023/09/17 08:25:59;;;;;;;7.03;6.20;;;;;;;23.59;52.89;101368.13;1630622;87;21063;-83
2023/09/17 08:28:29;;;;;;;8.05;6.67;;;;;;;23.95;51.06;101369.39;1642541;87;21027;-84
2023/09/17 08:30:58;;;;;;;7.50;6.72;;;;;;;24.05;49.45;101361.10;1639652;87;21039;-81
2023/09/17 08:33:26;;;;;;;9.88;7.17;;;;;;;24.18;49.30;101361.27;1639636;87;21039;-81
2023/09/17 08:35:55;;;;;;;8.30;5.75;;;;;;;24.36;49.13;101362.87;1645013;85;21142;-85
2023/09/17 08:38:24;;;;;;;6.78;5.90;;;;;;;24.51;46.86;101363.00;1678270;84;21105;-82
2023/09/17 08:40:53;;;;;;;6.90;5.78;;;;;;;24.63;47.10;101363.66;1634611;86;21063;-82
2023/09/17 08:43:22;;;;;;;8.08;5.95;;;;;;;24.74;46.03;101364.06;1656023;85;21102;-86
2023/09/17 08:45:51;;;;;;;7.85;5.90;;;;;;;24.79;46.10;101365.50;1653958;87;21078;-83
2023/09/17 08:48:20;;;;;;;9.78;5.70;;;;;;;24.76;45.59;101363.23;1682576;85;21467;-80
2023/09/17 08:50:50;;;;;;;7.80;6.20;;;;;;;24.73;44.49;101362.37;1653936;87;21086;-78
2023/09/17 08:53:23;;;;;;;9.10;6.30;;;;;;;24.58;44.68;101361.66;1685476;83;21040;-84
2023/09/17 08:55:54;;;;;;;7.50;6.25;;;;;;;24.47;44.96;101359.05;1650351;85;21087;-85
2023/09/17 08:58:26;;;;;;;7.55;6.08;;;;;;;24.37;45.09;101357.55;1640457;87;21483;-83
2023/09/17 09:00:58;;;;;;;8.00;6.10;;;;;;;24.23;45.21;101359.91;1623528;88;21099;-82
2023/09/17 09:03:27;;;;;;;7.90;5.87;;;;;;;24.11;45.98;101357.27;1640557;87;21095;-84
2023/09/17 09:05:58;;;;;;;8.78;6.00;;;;;;;23.96;45.95;101355.69;1623261;88;21092;-82
2023/09/17 09:08:27;;;;;;;8.08;6.15;;;;;;;23.82;45.79;101353.85;1645019;86;21046;-84
2023/09/17 09:10:56;;;;;;;11.35;6.20;;;;;;;23.70;45.27;101355.40;1672737;86;21066;-82
2023/09/17 09:13:28;;;;;;;10.05;6.15;;;;;;;23.55;45.02;101362.20;1655810;84;21466;-82
2023/09/17 09:15:57;;;;;;;7.50;6.35;;;;;;;23.38;45.08;101348.77;1654014;87;21306;-82
2023/09/17 09:18:26;;;;;;;8.65;5.80;;;;;;;23.21;45.61;101356.38;1718168;83;21470;-83
2023/09/17 09:20:54;;;;;;;6.90;6.20;;;;;;;23.08;45.78;101347.80;1717923;83;21058;-82
2023/09/17 09:23:24;;;;;;;7.67;5.67;;;;;;;22.98;45.65;101349.05;1717307;83;21101;-82
2023/09/17 09:25:53;;;;;;;7.40;5.78;;;;;;;22.88;46.33;101344.16;1717313;83;21046;-86
2023/09/17 09:28:22;;;;;;;7.50;6.08;;;;;;;22.84;46.19;101339.34;1717174;83;21086;-82
2023/09/17 09:30:52;;;;;;;7.87;6.25;;;;;;;22.82;46.31;101355.52;1717124;83;21078;-84
2023/09/17 09:33:21;;;;;;;8.23;6.25;;;;;;;22.73;46.57;101339.67;1717476;83;21529;-86
2023/09/17 09:35:51;;;;;;;7.50;6.12;;;;;;;22.64;46.93;101330.88;1717697;83;21109;-83
2023/09/17 09:38:20;;;;;;;7.58;5.97;;;;;;;22.59;47.29;101339.72;1715010;82;21500;-82
2023/09/17 09:40:49;;;;;;;7.80;5.78;;;;;;;22.58;47.15;101339.42;1720122;83;21101;-83
2023/09/17 09:43:29;;;;;;;8.13;6.20;;;;;;;22.57;46.77;101334.94;1710843;83;21021;-81
2023/09/17 09:46:04;;;;;;;8.23;5.40;;;;;;;22.58;46.74;101338.87;1699359;84;21096;-83
2023/09/17 09:48:38;;;;;;;6.12;5.17;;;;;;;22.58;46.34;101338.87;1698621;84;21076;-82
2023/09/17 09:51:09;;;;;;;8.10;5.40;;;;;;;22.60;45.72;101341.41;1699661;84;21058;-81
2023/09/17 09:53:38;;;;;;;6.50;5.85;;;;;;;22.59;45.38;101341.13;1700528;84;21064;-86
2023/09/17 09:56:15;;;;;;;7.37;5.20;;;;;;;22.57;45.05;101344.17;1698826;84;21061;-85
2023/09/17 09:58:48;;;;;;;6.03;5.30;;;;;;;22.59;45.19;101349.50;1698708;83;21434;-82
2023/09/17 10:01:18;;;;;;;7.40;5.53;;;;;;;22.59;44.58;101342.52;1698501;84;21061;-84
2023/09/17 10:03:47;;;;;;;8.55;5.70;;;;;;;22.56;44.74;101346.67;1698139;84;21061;-86
2023/09/17 10:06:16;;;;;;;7.37;5.30;;;;;;;22.53;44.24;101341.59;1698328;84;21049;-84
2023/09/17 10:08:46;;;;;;;7.33;5.58;;;;;;;22.47;44.23;101338.41;1698569;84;21041;-79
2023/09/17 10:11:16;;;;;;;7.67;5.55;;;;;;;22.44;44.23;101329.99;1703509;84;21414;-85
2023/09/17 10:13:45;;;;;;;7.22;5.92;;;;;;;22.41;44.23;101329.10;1698194;84;21103;-82
2023/09/17 10:16:14;;;;;;;6.87;5.55;;;;;;;22.38;44.90;101328.22;1698480;84;21025;-78
2023/09/17 10:18:43;;;;;;;7.90;5.62;;;;;;;22.35;44.74;101327.88;1680589;84;21030;-82
2023/09/17 10:21:13;;;;;;;12.60;6.70;;;;;;;22.35;45.29;101326.48;1680568;84;21523;-83
2023/09/17 10:23:42;;;;;;;9.65;6.62;;;;;;;22.36;45.80;101323.44;1697897;84;21077;-68
2023/09/17 10:26:12;;;;;;;8.73;6.62;;;;;;;22.38;47.02;101320.39;1697736;84;21103;-68
2023/09/17 10:28:41;;;;;;;8.78;6.55;;;;;;;22.40;47.65;101316.79;1697870;84;21041;-75
2023/09/17 10:31:10;;;;;;;8.18;5.72;;;;;;;22.44;46.94;101311.84;1697866;84;21099;-75
2023/09/17 10:33:39;;;;;;;8.73;6.60;;;;;;;22.50;46.88;101314.72;1697895;84;21030;-74
2023/09/17 10:36:09;;;;;;;9.23;7.03;;;;;;;22.48;46.96;101319.16;1697872;84;21060;-74
2023/09/17 10:38:39;;;;;;;9.33;6.60;;;;;;;22.44;47.28;101312.39;1687774;84;21081;-81
2023/09/17 10:41:09;;;;;;;11.35;7.67;;;;;;;22.40;47.30;101302.27;1687513;84;21073;-76
2023/09/17 10:43:38;;;;;;;8.80;6.90;;;;;;;22.41;47.75;101301.17;1675611;85;21050;-78
2023/09/17 10:46:06;;;;;;;9.55;7.65;;;;;;;22.44;47.71;101306.25;1666719;86;21094;-74
2023/09/17 10:48:36;;;;;;;11.73;6.92;;;;;;;22.48;47.72;101302.95;1666634;86;21070;-75
2023/09/17 10:51:05;;;;;;;8.95;7.37;;;;;;;22.51;47.58;101303.28;1666654;86;21063;-75
2023/09/17 10:53:34;;;;;;;9.88;7.03;;;;;;;22.54;47.67;101294.95;1666725;86;21124;-74
2023/09/17 10:56:11;;;;;;;12.68;7.72;;;;;;;22.56;48.11;101299.73;1666955;86;21031;-81
2023/09/17 10:58:48;;;;;;;10.18;7.42;;;;;;;22.56;47.29;101299.73;1634410;88;21123;-83
2023/09/17 11:01:22;;;;;;;7.75;6.30;;;;;;;22.57;47.27;101290.24;1648218;87;21044;-84
2023/09/17 11:04:03;;;;;;;8.50;6.60;;;;;;;22.57;46.85;101288.84;1634194;88;21100;-84
2023/09/17 11:06:34;;;;;;;9.80;6.20;;;;;;;22.57;46.80;101293.04;1604371;89;21147;-85
2023/09/17 11:09:04;;;;;;;8.40;6.58;;;;;;;22.54;46.58;101290.20;1587178;90;21127;-78
2023/09/17 11:11:34;;;;;;;9.48;6.87;;;;;;;22.56;46.78;101284.36;1597707;89;21055;-79
2023/09/17 11:14:04;;;;;;;9.90;6.50;;;;;;;22.58;46.73;101282.16;1585938;90;21086;-74
2023/09/17 11:16:34;;;;;;;7.15;6.45;;;;;;;22.60;46.72;101287.78;1596786;89;21633;-76
2023/09/17 11:19:11;;;;;;;8.18;6.87;;;;;;;22.62;46.67;101281.94;1596917;90;21554;-75
2023/09/17 11:21:43;;;;;;;8.47;6.47;;;;;;;22.62;46.65;101274.95;1596906;90;21071;-75
2023/09/17 11:24:12;;;;;;;9.05;6.95;;;;;;;22.62;46.41;101271.61;1599750;88;21831;-76
2023/09/17 11:26:45;;;;;;;8.10;6.33;;;;;;;22.61;46.47;101269.92;1616316;88;21077;-76